DLH14U EDDM-LPPR
Flight info
| Callsign | DLH14U |
|---|---|
| Flight time | N/A |
| Altitude | 41000 |
| Route | ALG2S/26L ALG Y109 UMTEX Y100 TRA DCT LUTIX DCT BENOT DCT NEMOS DCT NINTU DCT MEBAK DCT REPSI DCT LERGA DCT MINSO DCT NARAK DCT AGN DCT PIPOR L866 PPN N976 ZMR L155 ADORO DCT INKIT |
| Aircraft | A359/H-SDE2E3GHIJ3J4J5LM1ORWXY/LB1D1 |
Departure
| Time | 2026-05-06 18:16 |
|---|---|
| Airport | Munich Airport (EDDM) |
Arrival
| Time | N/A |
|---|---|
| Airport | Francisco de Sá Carneiro Airport (LPPR) |
| Time | Latitude | Longitude | Altitude | Speed | Heading |
|---|---|---|---|---|---|
| 2026-05-06 18:12 | 48.34831 | 11.80042 | 1483 ft | 11 kts | 89° |
| 2026-05-06 18:12 | 48.34840 | 11.80189 | 1476 ft | 18 kts | 85° |
| 2026-05-06 18:12 | 48.34818 | 11.80349 | 1476 ft | 14 kts | 131° |
| 2026-05-06 18:12 | 48.34742 | 11.80396 | 1479 ft | 12 kts | 172° |
| 2026-05-06 18:13 | 48.34678 | 11.80408 | 1481 ft | 9 kts | 173° |
| 2026-05-06 18:13 | 48.34646 | 11.80414 | 1478 ft | 0 kts | 173° |
| 2026-05-06 18:14 | 48.34605 | 11.80421 | 1484 ft | 11 kts | 175° |
| 2026-05-06 18:14 | 48.34504 | 11.80427 | 1481 ft | 13 kts | 193° |
| 2026-05-06 18:14 | 48.34471 | 11.80330 | 1484 ft | 9 kts | 262° |
| 2026-05-06 18:14 | 48.34470 | 11.80317 | 1492 ft | 0 kts | 263° |
| 2026-05-06 18:15 | 48.34468 | 11.80282 | 1488 ft | 16 kts | 263° |
| 2026-05-06 18:15 | 48.34428 | 11.79776 | 1487 ft | 81 kts | 263° |
| 2026-05-06 18:15 | 48.34340 | 11.78632 | 1483 ft | 137 kts | 264° |
| 2026-05-06 18:16 | 48.34224 | 11.77092 | 2000 ft | 145 kts | 263° |
| 2026-05-06 18:16 | 48.34126 | 11.75595 | 2739 ft | 148 kts | 264° |
| 2026-05-06 18:16 | 48.34019 | 11.73958 | 3155 ft | 168 kts | 264° |
| 2026-05-06 18:16 | 48.33880 | 11.72083 | 3465 ft | 191 kts | 263° |
| 2026-05-06 18:17 | 48.33721 | 11.70043 | 4100 ft | 200 kts | 263° |
| 2026-05-06 18:17 | 48.33553 | 11.67930 | 4723 ft | 208 kts | 263° |
| 2026-05-06 18:17 | 48.33377 | 11.65767 | 4990 ft | 209 kts | 263° |
| 2026-05-06 18:17 | 48.33204 | 11.63570 | 5043 ft | 221 kts | 264° |
| 2026-05-06 18:18 | 48.33032 | 11.61171 | 5032 ft | 236 kts | 264° |
| 2026-05-06 18:18 | 48.32855 | 11.58694 | 5036 ft | 240 kts | 264° |
| 2026-05-06 18:18 | 48.32671 | 11.56201 | 5031 ft | 240 kts | 264° |
| 2026-05-06 18:18 | 48.32487 | 11.53711 | 5027 ft | 240 kts | 264° |
| 2026-05-06 18:19 | 48.32303 | 11.51208 | 5029 ft | 240 kts | 264° |
| 2026-05-06 18:19 | 48.32120 | 11.48716 | 5029 ft | 241 kts | 264° |
| 2026-05-06 18:19 | 48.31936 | 11.46210 | 5031 ft | 241 kts | 264° |
| 2026-05-06 18:19 | 48.31753 | 11.43709 | 5045 ft | 240 kts | 263° |
| 2026-05-06 18:20 | 48.31567 | 11.41208 | 5322 ft | 242 kts | 263° |
| 2026-05-06 18:20 | 48.31389 | 11.38693 | 6111 ft | 244 kts | 263° |
| 2026-05-06 18:20 | 48.31199 | 11.36124 | 6926 ft | 247 kts | 263° |
| 2026-05-06 18:20 | 48.31001 | 11.33535 | 7786 ft | 252 kts | 262° |
| 2026-05-06 18:21 | 48.30782 | 11.30903 | 8675 ft | 256 kts | 259° |
| 2026-05-06 18:21 | 48.30298 | 11.28334 | 9629 ft | 257 kts | 245° |
| 2026-05-06 18:21 | 48.29440 | 11.25967 | 10380 ft | 265 kts | 238° |
| 2026-05-06 18:21 | 48.28415 | 11.23525 | 10765 ft | 287 kts | 236° |
| 2026-05-06 18:22 | 48.27320 | 11.20957 | 11208 ft | 305 kts | 237° |
| 2026-05-06 18:22 | 48.26166 | 11.18228 | 11888 ft | 314 kts | 237° |
| 2026-05-06 18:22 | 48.24986 | 11.15427 | 12680 ft | 320 kts | 237° |
| 2026-05-06 18:22 | 48.23784 | 11.12570 | 13456 ft | 326 kts | 237° |
| 2026-05-06 18:23 | 48.22564 | 11.09670 | 14179 ft | 332 kts | 237° |
| 2026-05-06 18:23 | 48.21322 | 11.06720 | 14825 ft | 338 kts | 236° |
| 2026-05-06 18:23 | 48.20059 | 11.03722 | 15513 ft | 343 kts | 236° |
| 2026-05-06 18:23 | 48.18773 | 11.00673 | 16190 ft | 348 kts | 236° |
| 2026-05-06 18:24 | 48.17468 | 10.97580 | 16810 ft | 355 kts | 236° |
| 2026-05-06 18:24 | 48.16142 | 10.94443 | 17514 ft | 359 kts | 235° |
| 2026-05-06 18:24 | 48.14795 | 10.91258 | 18200 ft | 365 kts | 235° |
| 2026-05-06 18:24 | 48.13430 | 10.88037 | 18799 ft | 370 kts | 235° |
| 2026-05-06 18:25 | 48.12046 | 10.84771 | 19533 ft | 371 kts | 235° |
| 2026-05-06 18:25 | 48.11120 | 10.82557 | 20080 ft | 371 kts | 236° |
| 2026-05-06 18:25 | 48.09692 | 10.77878 | 21032 ft | 378 kts | 249° |
| 2026-05-06 18:25 | 48.08878 | 10.74124 | 21685 ft | 382 kts | 249° |
| 2026-05-06 18:26 | 48.08311 | 10.71524 | 22153 ft | 384 kts | 249° |
| 2026-05-06 18:26 | 48.07483 | 10.67756 | 22895 ft | 386 kts | 249° |
| 2026-05-06 18:26 | 48.06639 | 10.63931 | 23590 ft | 388 kts | 248° |
| 2026-05-06 18:26 | 48.05789 | 10.60085 | 24176 ft | 391 kts | 248° |
| 2026-05-06 18:27 | 48.04936 | 10.56230 | 24785 ft | 392 kts | 248° |
| 2026-05-06 18:27 | 48.04077 | 10.52348 | 25403 ft | 393 kts | 248° |
| 2026-05-06 18:27 | 48.03228 | 10.48515 | 25984 ft | 395 kts | 248° |
| 2026-05-06 18:27 | 48.02360 | 10.44604 | 26590 ft | 397 kts | 248° |
| 2026-05-06 18:28 | 48.01489 | 10.40683 | 27177 ft | 399 kts | 248° |
| 2026-05-06 18:28 | 48.00611 | 10.36741 | 27774 ft | 401 kts | 248° |
| 2026-05-06 18:28 | 47.99730 | 10.32792 | 28354 ft | 403 kts | 248° |
| 2026-05-06 18:28 | 47.98840 | 10.28810 | 28867 ft | 404 kts | 248° |
| 2026-05-06 18:29 | 47.97937 | 10.24764 | 29410 ft | 407 kts | 248° |
| 2026-05-06 18:29 | 47.97046 | 10.20771 | 30113 ft | 405 kts | 248° |
| 2026-05-06 18:29 | 47.96158 | 10.16819 | 30440 ft | 410 kts | 248° |
| 2026-05-06 18:29 | 47.95241 | 10.12760 | 30700 ft | 414 kts | 248° |
| 2026-05-06 18:30 | 47.94316 | 10.08673 | 30840 ft | 416 kts | 248° |
| 2026-05-06 18:30 | 47.93390 | 10.04582 | 30866 ft | 416 kts | 248° |
| 2026-05-06 18:30 | 47.91535 | 9.96398 | 30865 ft | 417 kts | 248° |
| 2026-05-06 18:31 | 47.89668 | 9.88190 | 30921 ft | 419 kts | 248° |
| 2026-05-06 18:31 | 47.88730 | 9.84082 | 31221 ft | 422 kts | 248° |